Time;durP1;ratioP1;P1;durP2;ratioP2;P2;SDS_P1;SDS_P2;PMS_P1;PMS_P2;Temp;Humidity;BMP_temperature;BMP_pressure;BME280_temperature;BME280_humidity;BME280_pressure;Samples;Min_cycle;Max_cycle;Signal;HPM_P1;HPM_P2
2021/12/23 00:02:16;;;;;;;72.32;31.85;;;;;;;-4.48;82.88;101328.89;1824743;78;21615;-70
2021/12/23 00:04:42;;;;;;;78.83;33.53;;;;;;;-4.53;82.89;101322.53;1824667;78;26738;-70
2021/12/23 00:07:08;;;;;;;84.72;38.98;;;;;;;-4.57;82.92;101325.69;1816488;78;25800;-70
2021/12/23 00:10:02;;;;;;;105.55;45.67;;;;;;;-4.60;82.94;101319.28;1792072;80;21049;-71
2021/12/23 00:12:02;;;;;;;77.35;34.08;;;;;;;-4.63;82.94;101320.70;1788232;80;21009;-71
2021/12/23 00:14:28;;;;;;;68.22;30.37;;;;;;;-4.66;82.94;101327.31;1797731;78;21053;-70
2021/12/23 00:17:18;;;;;;;71.82;32.17;;;;;;;-4.65;82.96;101319.91;1816692;78;26608;-71
2021/12/23 00:24:39;;;;;;;69.55;30.88;;;;;;;-4.61;82.95;101299.36;1890009;75;28064;-70
2021/12/23 00:27:06;;;;;;;78.95;32.40;;;;;;;-4.66;82.95;101303.89;1825573;78;21032;-70
2021/12/23 00:29:32;;;;;;;66.67;31.50;;;;;;;-4.67;82.97;101296.98;1825826;78;21499;-70
2021/12/23 00:31:59;;;;;;;63.52;30.23;;;;;;;-4.69;82.96;101293.59;1793006;80;20978;-70
2021/12/23 00:34:26;;;;;;;67.35;30.20;;;;;;;-4.70;82.98;101294.48;1792894;80;21022;-70
2021/12/23 00:36:54;;;;;;;66.67;31.93;;;;;;;-4.69;82.98;101290.98;1766549;80;21084;-70
2021/12/23 00:39:20;;;;;;;73.47;31.57;;;;;;;-4.70;82.99;101286.68;1776814;79;21069;-70
2021/12/23 00:41:46;;;;;;;76.22;33.30;;;;;;;-4.71;82.99;101287.57;1767940;79;21082;-70
2021/12/23 00:44:13;;;;;;;72.53;33.53;;;;;;;-4.73;83.00;101281.58;1766350;81;20970;-70
2021/12/23 00:46:39;;;;;;;75.60;34.63;;;;;;;-4.75;83.02;101285.15;1766752;79;20991;-69
2021/12/23 00:49:06;;;;;;;71.15;31.40;;;;;;;-4.76;83.02;101281.69;1824369;78;21022;-70
2021/12/23 00:51:33;;;;;;;68.12;32.53;;;;;;;-4.78;83.04;101279.58;1825280;78;20979;-70
2021/12/23 00:54:05;;;;;;;71.28;33.23;;;;;;;-4.78;83.04;101277.42;1825596;78;21073;-70
2021/12/23 00:56:35;;;;;;;73.62;32.53;;;;;;;-4.79;83.06;101281.80;1756960;80;21016;-70
2021/12/23 00:59:06;;;;;;;77.17;32.20;;;;;;;-4.78;83.06;101287.38;1785885;80;21015;-70
2021/12/23 01:01:32;;;;;;;69.60;30.95;;;;;;;-4.79;83.05;101282.25;1785826;80;21051;-70
2021/12/23 01:03:58;;;;;;;64.75;30.55;;;;;;;-4.82;83.05;101276.67;1793687;79;21050;-70
2021/12/23 01:06:24;;;;;;;69.70;32.40;;;;;;;-4.83;83.07;101278.05;1797725;79;21122;-70
2021/12/23 01:08:50;;;;;;;70.42;30.68;;;;;;;-4.85;83.08;101272.88;1767951;79;21049;-70
2021/12/23 01:11:16;;;;;;;66.22;31.95;;;;;;;-4.85;83.10;101270.28;1793074;80;21072;-70
2021/12/23 01:13:49;;;;;;;67.50;29.63;;;;;;;-4.83;83.09;101269.80;1793403;80;21443;-70
2021/12/23 01:16:24;;;;;;;63.87;30.32;;;;;;;-4.80;83.11;101257.98;1759139;81;20986;-70
2021/12/23 01:18:51;;;;;;;71.30;32.98;;;;;;;-4.80;83.10;101254.08;1817156;78;21243;-70
2021/12/23 01:21:16;;;;;;;76.55;34.30;;;;;;;-4.79;83.10;101245.38;1824118;78;20975;-70
2021/12/23 01:23:53;;;;;;;;;;;;;;;-4.79;83.12;101245.38;1828180;78;21534;-70
2021/12/23 01:26:22;;;;;;;66.75;30.90;;;;;;;-4.79;83.10;101237.58;1825919;78;20458;-70
2021/12/23 01:28:52;;;;;;;72.80;30.92;;;;;;;-4.79;83.13;101233.67;1825466;78;21550;-70
2021/12/23 01:31:18;;;;;;;75.15;32.70;;;;;;;-4.79;83.13;101227.63;1824987;78;21084;-70
2021/12/23 01:33:45;;;;;;;73.72;33.25;;;;;;;-4.79;83.14;101221.97;1761648;81;20984;-70
2021/12/23 01:36:11;;;;;;;75.35;32.83;;;;;;;-4.79;83.14;101224.58;1811895;78;21033;-70
2021/12/23 01:38:37;;;;;;;72.87;31.17;;;;;;;-4.79;83.16;101215.47;1768186;79;21007;-70
2021/12/23 01:41:03;;;;;;;78.67;34.63;;;;;;;-4.79;83.16;101214.17;1792738;80;21481;-70
2021/12/23 01:43:29;;;;;;;83.33;34.78;;;;;;;-4.81;83.16;101210.75;1816194;78;21169;-70
2021/12/23 01:45:55;;;;;;;80.12;33.45;;;;;;;-4.81;83.16;101208.15;1796155;79;26438;-70
2021/12/23 01:48:21;;;;;;;79.12;31.45;;;;;;;-4.81;83.16;101199.49;1794492;78;21037;-70
2021/12/23 01:50:47;;;;;;;69.30;32.85;;;;;;;-4.82;83.16;101201.23;1761258;81;28175;-70
2021/12/23 01:53:13;;;;;;;75.17;32.53;;;;;;;-4.84;83.15;101197.86;1759870;81;21073;-70
2021/12/23 01:55:42;;;;;;;75.15;32.85;;;;;;;-4.87;83.17;101204.47;1793136;78;21505;-70
2021/12/23 01:58:07;;;;;;;80.10;32.58;;;;;;;-4.87;83.17;101201.87;1792551;80;20998;-70
2021/12/23 02:00:35;;;;;;;72.17;32.42;;;;;;;-4.87;83.16;101201.87;1820553;78;20970;-70
2021/12/23 02:03:01;;;;;;;74.27;32.85;;;;;;;-4.89;83.15;101201.05;1767789;79;21046;-70
2021/12/23 02:05:27;;;;;;;73.22;32.63;;;;;;;-4.89;83.15;101191.95;1792705;80;21645;-70
2021/12/23 02:07:53;;;;;;;77.82;33.60;;;;;;;-4.89;83.17;101194.55;1765221;79;22240;-70
2021/12/23 02:10:19;;;;;;;73.62;32.33;;;;;;;-4.89;83.19;101191.95;1792919;78;21026;-70
2021/12/23 02:12:46;;;;;;;86.02;34.90;;;;;;;-4.90;83.17;101184.22;1794187;78;20974;-70
2021/12/23 02:15:14;;;;;;;82.97;37.08;;;;;;;-4.93;83.19;101179.98;1792700;80;21490;-70
2021/12/23 02:17:40;;;;;;;81.87;35.40;;;;;;;-4.93;83.19;101173.48;1792509;80;21041;-70
2021/12/23 02:20:09;;;;;;;81.82;36.20;;;;;;;-4.92;83.19;101169.10;1793092;78;21085;-70
2021/12/23 02:22:35;;;;;;;80.12;36.48;;;;;;;-4.93;83.20;101166.13;1760683;81;20966;-70
2021/12/23 02:25:01;;;;;;;87.00;36.03;;;;;;;-4.93;83.20;101160.48;1732978;80;21082;-70
2021/12/23 02:27:27;;;;;;;77.87;34.45;;;;;;;-4.93;83.20;101156.58;1757303;81;21062;-70
2021/12/23 02:29:53;;;;;;;80.40;32.75;;;;;;;-4.91;83.20;101152.16;1772553;80;21018;-70
2021/12/23 02:32:19;;;;;;;80.65;35.60;;;;;;;-4.91;83.19;101152.16;1761052;81;21138;-70
2021/12/23 02:34:45;;;;;;;80.45;35.85;;;;;;;-4.89;83.20;101142.53;1764305;80;21609;-70
2021/12/23 02:37:12;;;;;;;84.30;36.73;;;;;;;-4.90;83.20;101136.96;1737578;81;20996;-70
2021/12/23 02:39:39;;;;;;;93.30;36.70;;;;;;;-4.89;83.21;101137.34;1759323;81;21624;-70
2021/12/23 02:42:05;;;;;;;82.80;33.25;;;;;;;-4.90;83.21;101130.45;1733970;81;26565;-70
2021/12/23 02:44:31;;;;;;;84.92;35.65;;;;;;;-4.86;83.20;101134.66;1792052;80;21980;-70
2021/12/23 02:46:57;;;;;;;78.78;34.67;;;;;;;-4.87;83.21;101127.75;1763136;80;21063;-69
2021/12/23 02:49:23;;;;;;;85.42;36.08;;;;;;;-4.87;83.21;101125.14;1783553;80;20996;-70
2021/12/23 02:51:49;;;;;;;70.95;34.10;;;;;;;-4.87;83.23;101127.75;1792400;80;21046;-70
2021/12/23 02:54:15;;;;;;;81.70;35.73;;;;;;;-4.88;83.22;101120.84;1791109;80;21567;-70
2021/12/23 02:56:41;;;;;;;76.95;35.13;;;;;;;-4.87;83.23;101119.94;1792353;80;22184;-70
2021/12/23 02:59:07;;;;;;;86.32;35.75;;;;;;;-4.88;83.22;101116.08;1792108;80;21027;-70
2021/12/23 03:01:33;;;;;;;80.85;33.92;;;;;;;-4.87;83.23;101116.04;1792473;80;21531;-70
2021/12/23 03:03:59;;;;;;;86.28;35.00;;;;;;;-4.87;83.22;101104.34;1792128;80;28774;-70
2021/12/23 03:06:25;;;;;;;85.42;37.28;;;;;;;-4.88;83.24;101094.83;1768101;80;26488;-70
2021/12/23 03:08:57;;;;;;;75.37;32.70;;;;;;;-4.90;83.24;101091.45;1791190;80;21139;-70
2021/12/23 03:11:24;;;;;;;74.03;33.48;;;;;;;-4.90;83.25;101086.25;1792048;80;20996;-70
2021/12/23 03:13:50;;;;;;;73.02;33.70;;;;;;;-4.91;83.26;101084.54;1792133;80;21024;-70
2021/12/23 03:16:25;;;;;;;76.33;35.30;;;;;;;-4.92;83.26;101075.03;1765853;80;21026;-70
2021/12/23 03:18:52;;;;;;;76.55;34.43;;;;;;;-4.92;83.27;101073.73;1760610;81;21019;-70
2021/12/23 03:21:17;;;;;;;74.35;33.45;;;;;;;-4.94;83.26;101065.16;1760946;81;21664;-70
2021/12/23 03:23:44;;;;;;;75.55;34.50;;;;;;;-4.96;83.26;101063.04;1762732;81;21034;-70
2021/12/23 03:26:13;;;;;;;70.00;32.73;;;;;;;-4.97;83.27;101050.97;1772599;81;21010;-70
2021/12/23 03:28:39;;;;;;;71.53;31.70;;;;;;;-4.95;83.27;101050.89;1770834;81;21055;-70
2021/12/23 03:31:05;;;;;;;74.50;33.65;;;;;;;-4.96;83.26;101045.31;1746973;80;21002;-70
2021/12/23 03:33:31;;;;;;;75.35;34.40;;;;;;;-4.98;83.26;101049.26;1742793;81;21076;-70
2021/12/23 03:35:57;;;;;;;79.40;34.03;;;;;;;-4.99;83.26;101047.55;1742624;82;20998;-70
2021/12/23 03:38:23;;;;;;;68.42;31.60;;;;;;;-5.01;83.28;101057.17;1743147;81;21530;-70
2021/12/23 03:40:50;;;;;;;77.00;32.73;;;;;;;-5.01;83.30;101051.98;1742668;81;20987;-70
2021/12/23 03:43:16;;;;;;;80.53;34.50;;;;;;;-4.99;83.28;101048.00;1742737;81;21046;-70
2021/12/23 03:45:44;;;;;;;73.72;34.75;;;;;;;-5.00;83.26;101044.58;1743478;81;21172;-70
2021/12/23 03:48:11;;;;;;;71.87;30.57;;;;;;;-5.00;83.28;101035.48;1742141;82;21025;-70
2021/12/23 03:50:37;;;;;;;70.75;32.28;;;;;;;-5.02;83.29;101029.47;1742227;81;21054;-70
2021/12/23 03:53:03;;;;;;;84.80;34.88;;;;;;;-5.04;83.28;101022.19;1742708;81;20990;-70
2021/12/23 03:55:29;;;;;;;73.55;33.00;;;;;;;-5.06;83.26;101021.38;1743250;81;21046;-70
2021/12/23 03:57:55;;;;;;;77.17;32.78;;;;;;;-5.07;83.27;101015.81;1742682;81;22097;-70
2021/12/23 04:00:22;;;;;;;76.67;32.90;;;;;;;-5.08;83.28;101012.36;1762440;81;20975;-70
2021/12/23 04:02:49;;;;;;;74.30;33.10;;;;;;;-5.09;83.25;101015.00;1772311;81;21034;-70
2021/12/23 04:05:15;;;;;;;75.15;31.33;;;;;;;-5.09;83.28;101003.30;1765998;80;21026;-70
2021/12/23 04:07:42;;;;;;;71.97;31.93;;;;;;;-5.08;83.28;100990.70;1757310;81;21720;-70
2021/12/23 04:10:10;;;;;;;74.67;31.25;;;;;;;-5.09;83.31;100986.40;1772974;81;21150;-70
2021/12/23 04:12:36;;;;;;;72.65;32.33;;;;;;;-5.09;83.28;100986.40;1772798;80;21586;-70
2021/12/23 04:15:02;;;;;;;65.65;29.75;;;;;;;-5.13;83.29;100974.42;1754096;80;25966;-70
2021/12/23 04:17:28;;;;;;;72.97;32.73;;;;;;;-5.12;83.29;100976.12;1742276;81;20982;-70
2021/12/23 04:20:02;;;;;;;75.80;32.63;;;;;;;-5.13;83.26;100973.12;1742638;82;21002;-70
2021/12/23 04:22:23;;;;;;;75.90;33.53;;;;;;;-5.11;83.26;100964.38;1742467;81;22135;-70
2021/12/23 04:24:49;;;;;;;75.47;32.48;;;;;;;-5.11;83.27;100964.83;1756165;81;21019;-70
2021/12/23 04:27:15;;;;;;;71.35;33.13;;;;;;;-5.10;83.25;100956.95;1790360;80;20997;-70
2021/12/23 04:29:41;;;;;;;82.25;36.33;;;;;;;-5.10;83.27;100949.60;1808987;78;21560;-70
2021/12/23 04:32:07;;;;;;;77.27;34.53;;;;;;;-5.06;83.25;100943.38;1822832;78;27100;-70
2021/12/23 04:34:33;;;;;;;77.85;31.65;;;;;;;-5.06;83.25;100939.03;1786011;80;21183;-70
2021/12/23 04:36:59;;;;;;;85.55;34.63;;;;;;;-5.06;83.26;100942.09;1815998;78;20993;-70
2021/12/23 04:39:25;;;;;;;78.95;35.35;;;;;;;-5.05;83.26;100942.48;1755200;81;25938;-70
2021/12/23 04:41:51;;;;;;;71.67;34.20;;;;;;;-5.02;83.28;100941.06;1790653;80;21061;-70
2021/12/23 04:44:17;;;;;;;74.03;36.17;;;;;;;-5.02;83.28;100930.67;1771496;80;21523;-70
2021/12/23 04:46:43;;;;;;;79.80;34.27;;;;;;;-5.01;83.29;100927.17;1822384;78;22118;-70
2021/12/23 04:49:09;;;;;;;94.62;38.13;;;;;;;-5.01;83.29;100921.97;1800578;79;21009;-70
2021/12/23 04:51:35;;;;;;;103.32;39.23;;;;;;;-5.04;83.28;100916.89;1815801;78;21013;-70
2021/12/23 04:54:01;;;;;;;77.92;32.03;;;;;;;-5.06;83.28;100913.48;1790656;80;21060;-71
2021/12/23 04:56:27;;;;;;;88.75;34.45;;;;;;;-5.06;83.27;100906.98;1790319;78;21545;-70
2021/12/23 04:58:54;;;;;;;100.02;37.35;;;;;;;-5.07;83.26;100904.02;1790576;80;21670;-70
2021/12/23 05:01:21;;;;;;;83.42;33.95;;;;;;;-5.07;83.26;100902.72;1811313;78;20982;-70
2021/12/23 05:03:48;;;;;;;85.70;33.95;;;;;;;-5.03;83.26;100899.06;1822517;78;20994;-70
2021/12/23 05:06:15;;;;;;;83.60;34.65;;;;;;;-5.01;83.27;100893.37;1822738;78;20994;-70
2021/12/23 05:08:42;;;;;;;77.95;31.27;;;;;;;-5.00;83.27;100887.27;1821726;78;21021;-70
2021/12/23 05:11:07;;;;;;;83.55;34.65;;;;;;;-4.98;83.26;100877.64;1790704;79;21766;-70
2021/12/23 05:13:33;;;;;;;89.05;34.60;;;;;;;-4.96;83.27;100875.81;1754734;81;21078;-70
2021/12/23 05:16:00;;;;;;;77.55;34.03;;;;;;;-4.95;83.26;100871.02;1817386;77;20966;-70
2021/12/23 05:18:26;;;;;;;85.77;34.98;;;;;;;-4.97;83.26;100863.75;1786193;80;21003;-70
2021/12/23 05:20:52;;;;;;;84.85;35.03;;;;;;;-4.98;83.29;100858.14;1817492;78;22063;-70
2021/12/23 05:23:18;;;;;;;122.05;42.60;;;;;;;-4.99;83.27;100852.98;1754836;81;21919;-70
2021/12/23 05:25:44;;;;;;;143.15;49.13;;;;;;;-4.99;83.26;100857.73;1794246;79;21049;-70
2021/12/23 05:28:10;;;;;;;107.00;40.75;;;;;;;-5.00;83.26;100858.67;1795400;79;21053;-70
2021/12/23 05:30:36;;;;;;;83.95;36.00;;;;;;;-5.02;83.27;100853.11;1796181;78;21528;-70
2021/12/23 05:33:03;;;;;;;71.65;31.90;;;;;;;-5.06;83.25;100854.98;1795894;79;21446;-70
2021/12/23 05:35:29;;;;;;;73.83;31.65;;;;;;;-5.11;83.26;100846.09;1799043;78;21049;-70
2021/12/23 05:37:55;;;;;;;72.40;30.52;;;;;;;-5.09;83.24;100851.22;1817563;78;20958;-70
2021/12/23 05:40:24;;;;;;;71.65;31.40;;;;;;;-5.08;83.24;100837.31;1828456;78;20978;-70
2021/12/23 05:42:50;;;;;;;74.25;31.55;;;;;;;-5.09;83.24;100839.06;1804407;78;21263;-70
2021/12/23 05:45:16;;;;;;;83.37;32.05;;;;;;;-5.08;83.24;100836.02;1807168;78;21018;-70
2021/12/23 05:47:42;;;;;;;71.70;31.17;;;;;;;-5.06;83.24;100841.54;1828182;78;21134;-70
2021/12/23 05:50:09;;;;;;;69.47;32.15;;;;;;;-5.08;83.22;100827.77;1828286;78;21462;-70
2021/12/23 05:52:35;;;;;;;73.00;31.70;;;;;;;-5.10;83.24;100821.77;1828047;78;21017;-70
2021/12/23 05:55:03;;;;;;;80.95;34.13;;;;;;;-5.12;83.23;100826.20;1826137;78;28440;-70
2021/12/23 05:57:29;;;;;;;74.92;32.00;;;;;;;-5.09;83.23;100829.11;1806523;78;21475;-69
2021/12/23 05:59:56;;;;;;;72.32;31.27;;;;;;;-5.04;83.23;100833.69;1795719;79;21659;-69
2021/12/23 06:02:22;;;;;;;74.40;32.60;;;;;;;-5.01;83.24;100827.52;1795807;79;20997;-69
2021/12/23 06:04:48;;;;;;;71.22;32.93;;;;;;;-5.00;83.24;100824.87;1795619;79;25844;-69
2021/12/23 06:07:14;;;;;;;74.50;32.05;;;;;;;-5.00;83.25;100822.27;1796492;78;21069;-69
2021/12/23 06:09:40;;;;;;;74.47;31.48;;;;;;;-4.99;83.24;100823.09;1795637;79;21491;-70
2021/12/23 06:12:09;;;;;;;70.75;31.50;;;;;;;-5.00;83.25;100829.22;1815156;78;21842;-69
2021/12/23 06:14:35;;;;;;;70.15;30.35;;;;;;;-5.00;83.23;100822.72;1828127;78;21049;-69
2021/12/23 06:17:02;;;;;;;69.07;30.90;;;;;;;-4.93;83.23;100825.02;1828278;78;21005;-69
2021/12/23 06:19:28;;;;;;;75.37;32.67;;;;;;;-4.91;83.21;100812.78;1828259;78;21462;-70
2021/12/23 06:21:54;;;;;;;69.17;32.85;;;;;;;-4.89;83.22;100813.55;1819619;78;21520;-69
2021/12/23 06:24:20;;;;;;;81.55;33.65;;;;;;;-4.91;83.21;100808.88;1795227;79;21129;-69
2021/12/23 06:26:46;;;;;;;80.40;32.10;;;;;;;-4.90;83.21;100815.78;1761452;80;26689;-69
2021/12/23 06:29:12;;;;;;;117.95;46.68;;;;;;;-4.92;83.20;100807.18;1778347;80;21047;-70
2021/12/23 06:31:38;;;;;;;101.95;37.67;;;;;;;-4.94;83.21;100802.51;1804345;79;21057;-69
2021/12/23 06:34:05;;;;;;;82.97;34.75;;;;;;;-4.94;83.21;100800.36;1812990;78;21033;-69
2021/12/23 06:36:31;;;;;;;88.15;33.80;;;;;;;-4.92;83.20;100799.83;1792455;80;21172;-69
2021/12/23 06:38:57;;;;;;;78.55;33.33;;;;;;;-4.90;83.21;100800.18;1793132;78;21494;-69
2021/12/23 06:41:23;;;;;;;75.60;33.78;;;;;;;-4.92;83.22;100796.78;1793348;78;26527;-69
2021/12/23 06:43:49;;;;;;;82.17;35.58;;;;;;;-4.88;83.21;100799.65;1759181;80;29196;-69
2021/12/23 06:46:15;;;;;;;92.80;41.25;;;;;;;-4.85;83.18;100796.06;1763007;80;26502;-70
2021/12/23 06:48:41;;;;;;;91.22;41.85;;;;;;;-4.85;83.16;100793.02;1824821;78;21209;-70
2021/12/23 06:51:07;;;;;;;91.63;37.63;;;;;;;-4.87;83.16;100790.09;1817651;78;21498;-70
2021/12/23 06:53:33;;;;;;;91.97;39.95;;;;;;;-4.90;83.17;100787.17;1821653;78;21428;-70
2021/12/23 06:56:00;;;;;;;89.50;36.17;;;;;;;-4.88;83.19;100794.90;1825043;78;21011;-69
2021/12/23 06:58:26;;;;;;;82.20;35.52;;;;;;;-4.84;83.17;100781.72;1790131;80;21001;-70
2021/12/23 07:00:53;;;;;;;145.95;54.93;;;;;;;-4.82;83.16;100782.48;1790965;80;21193;-69
2021/12/23 07:03:20;;;;;;;135.85;50.03;;;;;;;-4.78;83.17;100789.25;1807184;77;21037;-70
2021/12/23 07:05:51;;;;;;;79.82;34.05;;;;;;;-4.72;83.18;100782.97;1775564;80;21008;-70
2021/12/23 07:08:26;;;;;;;88.60;35.30;;;;;;;-4.70;83.17;100783.73;1776542;79;21037;-70
2021/12/23 07:10:42;;;;;;;85.17;37.23;;;;;;;-4.70;83.18;100776.78;1790968;79;21050;-69
2021/12/23 07:13:08;;;;;;;80.90;36.90;;;;;;;-4.68;83.15;100774.95;1801866;79;21585;-70
2021/12/23 07:15:36;;;;;;;85.42;35.95;;;;;;;-4.67;83.17;100770.59;1822466;78;20962;-70
2021/12/23 07:18:02;;;;;;;96.70;41.63;;;;;;;-4.64;83.17;100769.16;1780156;79;21058;-69
2021/12/23 07:20:28;;;;;;;96.47;43.10;;;;;;;-4.61;83.19;100769.88;1793168;78;21002;-69
2021/12/23 07:22:54;;;;;;;97.50;42.55;;;;;;;-4.60;83.17;100761.17;1794015;78;20954;-69
2021/12/23 07:25:20;;;;;;;109.48;46.48;;;;;;;-4.54;83.18;100767.88;1817422;78;21103;-69
2021/12/23 07:27:47;;;;;;;112.52;44.98;;;;;;;-4.50;83.18;100759.48;1769184;78;21489;-70
2021/12/23 07:30:15;;;;;;;85.67;38.92;;;;;;;-4.48;83.16;100753.75;1825004;78;21487;-69
2021/12/23 07:32:42;;;;;;;131.93;52.50;;;;;;;-4.50;83.15;100752.50;1791538;80;20990;-70
2021/12/23 07:35:08;;;;;;;159.05;59.93;;;;;;;-4.48;83.13;100751.15;1789411;80;21035;-70
2021/12/23 07:37:35;;;;;;;102.20;48.05;;;;;;;-4.49;83.15;100755.95;1789056;80;21546;-70
2021/12/23 07:40:04;;;;;;;110.12;47.73;;;;;;;-4.50;83.18;100741.27;1778151;79;20992;-70
2021/12/23 07:42:32;;;;;;;93.47;40.48;;;;;;;-4.47;83.18;100743.73;1812786;77;21003;-70
2021/12/23 07:45:01;;;;;;;187.53;63.55;;;;;;;-4.46;83.17;100737.59;1781962;80;20991;-70
2021/12/23 07:47:27;;;;;;;171.02;54.70;;;;;;;-4.49;83.16;100727.33;1781718;79;21540;-70
2021/12/23 07:49:53;;;;;;;169.90;61.98;;;;;;;-4.50;83.14;100725.66;1783151;79;22303;-70
2021/12/23 07:52:21;;;;;;;121.28;50.35;;;;;;;-4.51;83.11;100718.76;1777061;78;21020;-70
2021/12/23 07:54:47;;;;;;;89.25;37.83;;;;;;;-4.49;83.13;100718.22;1784251;79;21331;-69
2021/12/23 07:57:13;;;;;;;97.75;43.95;;;;;;;-4.47;83.13;100725.52;1785079;78;21028;-70
2021/12/23 07:59:39;;;;;;;95.22;39.55;;;;;;;-4.43;83.12;100730.98;1811701;78;21025;-70
2021/12/23 08:02:05;;;;;;;99.13;42.88;;;;;;;-4.36;83.13;100718.91;1786456;79;21143;-69
2021/12/23 08:04:33;;;;;;;79.25;36.00;;;;;;;-4.30;83.10;100720.41;1814169;77;22200;-70
2021/12/23 08:07:02;;;;;;;99.00;44.48;;;;;;;-4.26;83.11;100721.97;1814666;78;21040;-70
2021/12/23 08:09:27;;;;;;;104.35;45.60;;;;;;;-4.23;83.08;100708.81;1808656;77;21090;-70
2021/12/23 08:11:54;;;;;;;98.12;41.20;;;;;;;-4.22;83.07;100696.19;1811450;77;21047;-69
2021/12/23 08:14:20;;;;;;;96.00;42.35;;;;;;;-4.23;83.05;100692.73;1772726;80;21666;-70
2021/12/23 08:16:47;;;;;;;80.97;36.13;;;;;;;-4.18;83.06;100684.70;1771706;78;21002;-70
2021/12/23 08:19:13;;;;;;;75.08;35.08;;;;;;;-4.09;83.05;100685.59;1803442;78;21463;-69
2021/12/23 08:21:39;;;;;;;78.28;35.75;;;;;;;-4.09;83.05;100679.09;1799327;78;21006;-69
2021/12/23 08:24:05;;;;;;;70.55;30.90;;;;;;;-4.07;83.06;100674.64;1768039;80;21020;-70
2021/12/23 08:26:39;;;;;;;79.35;35.10;;;;;;;-4.03;83.05;100673.59;1770488;79;21239;-69
2021/12/23 08:28:59;;;;;;;92.70;36.90;;;;;;;-4.03;83.05;100663.17;1746143;80;21014;-69
2021/12/23 08:31:27;;;;;;;75.20;31.82;;;;;;;-4.02;83.06;100652.30;1742943;82;25840;-70
2021/12/23 08:33:54;;;;;;;63.73;30.20;;;;;;;-3.99;83.06;100646.94;1742733;82;20994;-72
2021/12/23 08:36:20;;;;;;;107.43;40.52;;;;;;;-3.96;83.05;100640.28;1759825;80;21046;-72
2021/12/23 08:38:46;;;;;;;124.05;44.65;;;;;;;-3.93;83.03;100629.72;1734769;82;22497;-72
2021/12/23 08:41:12;;;;;;;102.80;38.40;;;;;;;-3.90;83.00;100630.87;1777528;80;20982;-71
2021/12/23 08:43:38;;;;;;;68.97;30.52;;;;;;;-3.85;82.99;100637.56;1779366;80;21057;-72
2021/12/23 08:46:04;;;;;;;70.40;31.73;;;;;;;-3.83;83.01;100630.50;1784356;80;28206;-71
2021/12/23 08:48:30;;;;;;;71.82;31.95;;;;;;;-3.79;82.97;100621.62;1783473;80;20998;-71
2021/12/23 08:50:56;;;;;;;68.52;32.10;;;;;;;-3.77;83.00;100619.81;1768723;79;21145;-72
2021/12/23 08:53:23;;;;;;;73.95;33.80;;;;;;;-3.75;82.97;100625.78;1758761;80;26801;-71
2021/12/23 08:55:49;;;;;;;75.30;31.70;;;;;;;-3.73;82.97;100630.92;1749339;80;21042;-71
2021/12/23 08:58:15;;;;;;;69.47;32.17;;;;;;;-3.71;82.94;100622.11;1748022;80;21022;-71
2021/12/23 09:00:41;;;;;;;73.90;32.90;;;;;;;-3.66;82.93;100616.20;1724139;83;21063;-71
2021/12/23 09:03:08;;;;;;;64.87;30.72;;;;;;;-3.61;82.92;100615.53;1725597;81;21122;-71
2021/12/23 09:05:36;;;;;;;72.45;30.62;;;;;;;-3.59;82.89;100614.98;1765324;80;21010;-69
2021/12/23 09:08:04;;;;;;;61.73;31.23;;;;;;;-3.56;82.87;100604.44;1786941;80;21035;-68
2021/12/23 09:10:32;;;;;;;124.05;47.15;;;;;;;-3.57;82.88;100601.44;1757895;80;21342;-69
2021/12/23 09:12:58;;;;;;;65.42;32.63;;;;;;;-3.56;82.86;100605.73;1742143;80;21557;-68
2021/12/23 09:15:24;;;;;;;60.43;28.52;;;;;;;-3.56;82.82;100605.73;1786593;80;21524;-68
2021/12/23 09:17:50;;;;;;;60.35;28.05;;;;;;;-3.51;82.83;100604.18;1786942;80;21027;-68
2021/12/23 09:20:19;;;;;;;64.37;30.12;;;;;;;-3.48;82.81;100592.30;1783323;79;21011;-69
2021/12/23 09:22:45;;;;;;;72.45;36.77;;;;;;;-3.47;82.80;100586.63;1780066;80;21022;-69
2021/12/23 09:25:22;;;;;;;59.42;27.45;;;;;;;-3.49;82.73;100587.17;1803380;77;20994;-68
2021/12/23 09:27:55;;;;;;;64.97;27.90;;;;;;;-3.48;82.72;100584.97;1832869;77;21512;-69
2021/12/23 09:32:56;;;;;;;68.40;29.60;;;;;;;-3.33;82.69;100594.14;1771192;81;21483;-70
2021/12/23 09:35:25;;;;;;;70.67;29.37;;;;;;;-3.27;82.67;100579.97;1760820;80;21035;-70
2021/12/23 09:37:51;;;;;;;59.40;28.25;;;;;;;-3.19;82.66;100565.59;1787263;80;21010;-71
2021/12/23 09:40:17;;;;;;;60.12;25.43;;;;;;;-3.12;82.64;100556.53;1770868;80;21178;-71
2021/12/23 09:42:44;;;;;;;61.53;26.62;;;;;;;-3.11;82.63;100546.95;1743328;81;21007;-70
2021/12/23 09:45:12;;;;;;;61.92;27.07;;;;;;;-3.16;82.63;100536.75;1755604;81;21042;-70
2021/12/23 09:47:41;;;;;;;54.10;25.32;;;;;;;-3.13;82.61;100529.25;1771755;81;21593;-70
2021/12/23 09:50:09;;;;;;;60.95;25.95;;;;;;;-3.11;82.59;100515.66;1772993;80;20985;-70
2021/12/23 09:52:40;;;;;;;58.00;26.10;;;;;;;-3.11;82.53;100519.56;1791757;80;21147;-70
2021/12/23 09:55:07;;;;;;;72.03;27.48;;;;;;;-3.11;82.51;100516.50;1759841;80;21016;-70
2021/12/23 09:57:33;;;;;;;60.38;25.80;;;;;;;-3.09;82.48;100509.88;1748066;81;21016;-71
2021/12/23 09:59:59;;;;;;;67.00;28.02;;;;;;;-3.08;82.44;100495.47;1776587;80;20996;-70
2021/12/23 10:02:25;;;;;;;60.38;28.25;;;;;;;-3.06;82.41;100495.38;1770054;80;21003;-70
2021/12/23 10:04:51;;;;;;;57.67;26.97;;;;;;;-3.04;82.37;100501.37;1778764;80;21108;-70
2021/12/23 10:07:18;;;;;;;68.42;30.48;;;;;;;-2.99;82.31;100498.52;1771116;80;21553;-70
2021/12/23 10:09:59;;;;;;;70.60;28.87;;;;;;;-2.97;82.26;100492.75;1758366;81;21067;-70
2021/12/23 10:31:49;;;;;;;59.10;26.35;;;;;;;-2.54;82.03;100444.66;1798048;78;21856;-70
2021/12/23 10:37:16;;;;;;;55.28;25.95;;;;;;;-2.45;81.96;100438.06;1782156;79;21054;-70
2021/12/23 10:40:05;;;;;;;49.58;23.42;;;;;;;-2.36;81.90;100432.33;1826917;78;21002;-71
2021/12/23 10:42:31;;;;;;;56.88;26.10;;;;;;;-2.27;81.89;100424.42;1827454;78;21542;-70
2021/12/23 10:45:11;;;;;;;59.27;26.62;;;;;;;-2.19;81.88;100414.38;1792120;78;21852;-71
2021/12/23 10:47:46;;;;;;;;;;;;;;;-2.12;81.85;100409.17;1806678;79;21018;-71
2021/12/23 10:50:49;;;;;;;73.15;30.72;;;;;;;-2.11;81.84;100396.50;1803239;79;20198;-71
2021/12/23 10:53:37;;;;;;;53.48;24.98;;;;;;;-2.12;81.79;100391.73;1804040;79;21112;-72
2021/12/23 10:59:04;;;;;;;61.28;26.25;;;;;;;-2.06;81.68;100378.77;1795617;78;21551;-71
2021/12/23 11:01:30;;;;;;;55.50;25.52;;;;;;;-2.07;81.62;100373.16;1793060;78;21056;-70
2021/12/23 11:04:01;;;;;;;61.30;27.85;;;;;;;-2.10;81.62;100368.12;1802229;78;20963;-70
2021/12/23 11:06:34;;;;;;;46.20;22.20;;;;;;;-2.08;81.59;100362.35;1827251;78;20975;-70
2021/12/23 11:27:20;;;;;;;67.82;28.05;;;;;;;-2.06;81.50;100353.48;1806490;78;21124;-70
2021/12/23 11:37:00;;;;;;;48.68;23.77;;;;;;;-1.80;81.16;100295.73;1764982;79;21546;-71
2021/12/23 11:39:28;;;;;;;57.33;24.57;;;;;;;-1.79;81.16;100296.55;1774251;79;21107;-71
2021/12/23 11:41:50;;;;;;;51.68;24.37;;;;;;;-1.84;81.11;100278.56;1797442;78;21026;-71
2021/12/23 11:44:09;;;;;;;57.08;25.57;;;;;;;-1.82;81.08;100276.68;1814924;78;20982;-70
2021/12/23 11:46:45;;;;;;;54.18;26.07;;;;;;;-1.77;81.03;100269.41;1795434;78;20867;-70
2021/12/23 11:49:11;;;;;;;81.42;26.90;;;;;;;-1.71;80.99;100273.41;1794616;79;21025;-70
2021/12/23 11:54:41;;;;;;;72.50;29.67;;;;;;;-1.58;80.91;100254.23;1785499;79;21365;-70
2021/12/23 11:57:22;;;;;;;62.05;26.35;;;;;;;-1.60;80.86;100245.66;1793754;79;20970;-70
2021/12/23 12:00:14;;;;;;;64.67;27.42;;;;;;;-1.62;80.81;100234.45;1778761;78;21089;-70
2021/12/23 12:02:37;;;;;;;45.43;22.93;;;;;;;-1.56;80.78;100227.55;1784664;79;21057;-70
2021/12/23 12:05:11;;;;;;;101.12;39.42;;;;;;;-1.54;80.80;100225.66;1795382;79;21132;-70
2021/12/23 12:07:39;;;;;;;58.83;26.65;;;;;;;-1.54;80.74;100219.13;1792151;78;21013;-70
2021/12/23 12:10:12;;;;;;;88.50;36.35;;;;;;;-1.51;80.68;100227.23;1795334;79;20986;-69
2021/12/23 12:13:01;;;;;;;103.87;38.02;;;;;;;-1.44;80.65;100236.86;1792871;79;21554;-70